sensor_id;sensor_type;location;lat;lon;timestamp;P1;durP1;ratioP1;P2;durP2;ratioP2
67429;SDS011;54298;52.076;5.264;2024-02-14T00:00:13;4.8;;;2.5;;
67429;SDS011;54298;52.076;5.264;2024-02-14T00:01:49;3.1;;;2.31;;
67429;SDS011;54298;52.076;5.264;2024-02-14T00:03:25;2.9;;;2.4;;
67429;SDS011;54298;52.076;5.264;2024-02-14T00:05:00;3.7;;;2.7;;
67429;SDS011;54298;52.076;5.264;2024-02-14T00:08:13;3.8;;;2.4;;
67429;SDS011;54298;52.076;5.264;2024-02-14T00:09:49;3.5;;;2.21;;
67429;SDS011;54298;52.076;5.264;2024-02-14T00:11:25;3.5;;;2.21;;
67429;SDS011;54298;52.076;5.264;2024-02-14T00:14:38;3.3;;;2.5;;
67429;SDS011;54298;52.076;5.264;2024-02-14T00:16:14;3.0;;;2.31;;
67429;SDS011;54298;52.076;5.264;2024-02-14T00:17:50;3.0;;;2.1;;
67429;SDS011;54298;52.076;5.264;2024-02-14T00:21:02;3.9;;;2.8;;
67429;SDS011;54298;52.076;5.264;2024-02-14T00:22:38;4.61;;;2.6;;
67429;SDS011;54298;52.076;5.264;2024-02-14T00:24:14;4.5;;;2.5;;
67429;SDS011;54298;52.076;5.264;2024-02-14T00:25:50;4.5;;;2.7;;
67429;SDS011;54298;52.076;5.264;2024-02-14T00:29:03;3.9;;;2.5;;
67429;SDS011;54298;52.076;5.264;2024-02-14T00:30:39;5.3;;;3.0;;
67429;SDS011;54298;52.076;5.264;2024-02-14T00:32:18;4.0;;;2.9;;
67429;SDS011;54298;52.076;5.264;2024-02-14T00:35:31;4.1;;;2.7;;
67429;SDS011;54298;52.076;5.264;2024-02-14T00:37:07;4.1;;;2.9;;
67429;SDS011;54298;52.076;5.264;2024-02-14T00:38:43;4.5;;;2.8;;
67429;SDS011;54298;52.076;5.264;2024-02-14T00:41:56;4.0;;;2.7;;
67429;SDS011;54298;52.076;5.264;2024-02-14T00:43:32;4.5;;;3.3;;
67429;SDS011;54298;52.076;5.264;2024-02-14T00:45:08;4.3;;;3.0;;
67429;SDS011;54298;52.076;5.264;2024-02-14T00:46:45;4.91;;;3.2;;
67429;SDS011;54298;52.076;5.264;2024-02-14T00:49:57;3.9;;;3.2;;
67429;SDS011;54298;52.076;5.264;2024-02-14T00:51:33;5.2;;;3.5;;
67429;SDS011;54298;52.076;5.264;2024-02-14T00:53:09;4.41;;;3.4;;
67429;SDS011;54298;52.076;5.264;2024-02-14T00:56:21;6.0;;;3.4;;
67429;SDS011;54298;52.076;5.264;2024-02-14T00:57:57;4.91;;;3.8;;
67429;SDS011;54298;52.076;5.264;2024-02-14T00:59:34;5.2;;;3.5;;
67429;SDS011;54298;52.076;5.264;2024-02-14T01:02:46;8.1;;;4.1;;
67429;SDS011;54298;52.076;5.264;2024-02-14T01:04:22;8.4;;;4.1;;
67429;SDS011;54298;52.076;5.264;2024-02-14T01:06:01;5.3;;;3.6;;
67429;SDS011;54298;52.076;5.264;2024-02-14T01:09:13;9.21;;;4.41;;
67429;SDS011;54298;52.076;5.264;2024-02-14T01:10:49;6.4;;;4.3;;
67429;SDS011;54298;52.076;5.264;2024-02-14T01:12:25;7.4;;;4.7;;
67429;SDS011;54298;52.076;5.264;2024-02-14T01:14:02;7.7;;;4.5;;
67429;SDS011;54298;52.076;5.264;2024-02-14T01:17:14;6.1;;;3.9;;
67429;SDS011;54298;52.076;5.264;2024-02-14T01:18:50;6.8;;;3.9;;
67429;SDS011;54298;52.076;5.264;2024-02-14T01:20:26;5.8;;;4.0;;
67429;SDS011;54298;52.076;5.264;2024-02-14T01:23:38;6.4;;;4.3;;
67429;SDS011;54298;52.076;5.264;2024-02-14T01:25:14;5.9;;;4.1;;
67429;SDS011;54298;52.076;5.264;2024-02-14T01:26:50;6.1;;;3.8;;
67429;SDS011;54298;52.076;5.264;2024-02-14T01:30:03;5.5;;;4.3;;
67429;SDS011;54298;52.076;5.264;2024-02-14T01:31:40;8.4;;;4.61;;
67429;SDS011;54298;52.076;5.264;2024-02-14T01:33:16;5.5;;;3.9;;
67429;SDS011;54298;52.076;5.264;2024-02-14T01:34:52;6.2;;;3.9;;
67429;SDS011;54298;52.076;5.264;2024-02-14T01:38:04;5.3;;;4.0;;
67429;SDS011;54298;52.076;5.264;2024-02-14T01:39:40;5.6;;;4.2;;
67429;SDS011;54298;52.076;5.264;2024-02-14T01:41:16;7.0;;;4.3;;
67429;SDS011;54298;52.076;5.264;2024-02-14T01:44:29;6.4;;;4.41;;
67429;SDS011;54298;52.076;5.264;2024-02-14T01:46:05;5.9;;;4.3;;
67429;SDS011;54298;52.076;5.264;2024-02-14T01:47:42;6.5;;;4.2;;
67429;SDS011;54298;52.076;5.264;2024-02-14T01:50:54;6.1;;;4.61;;
67429;SDS011;54298;52.076;5.264;2024-02-14T01:52:30;5.8;;;4.3;;
67429;SDS011;54298;52.076;5.264;2024-02-14T01:54:06;8.1;;;4.8;;
67429;SDS011;54298;52.076;5.264;2024-02-14T01:57:18;8.2;;;4.5;;
67429;SDS011;54298;52.076;5.264;2024-02-14T01:58:54;5.9;;;4.5;;
67429;SDS011;54298;52.076;5.264;2024-02-14T02:00:32;6.0;;;4.61;;
67429;SDS011;54298;52.076;5.264;2024-02-14T02:02:09;6.5;;;5.11;;
67429;SDS011;54298;52.076;5.264;2024-02-14T02:05:24;6.4;;;4.61;;
67429;SDS011;54298;52.076;5.264;2024-02-14T02:07:00;6.9;;;4.41;;
67429;SDS011;54298;52.076;5.264;2024-02-14T02:08:36;6.7;;;4.41;;
67429;SDS011;54298;52.076;5.264;2024-02-14T02:11:49;8.71;;;4.8;;
67429;SDS011;54298;52.076;5.264;2024-02-14T02:13:25;7.3;;;4.61;;
67429;SDS011;54298;52.076;5.264;2024-02-14T02:15:02;6.3;;;4.5;;
67429;SDS011;54298;52.076;5.264;2024-02-14T02:18:14;8.0;;;4.61;;
67429;SDS011;54298;52.076;5.264;2024-02-14T02:19:52;8.4;;;5.0;;
67429;SDS011;54298;52.076;5.264;2024-02-14T02:21:29;7.9;;;4.7;;
67429;SDS011;54298;52.076;5.264;2024-02-14T02:23:05;6.6;;;4.7;;
67429;SDS011;54298;52.076;5.264;2024-02-14T02:26:17;6.8;;;4.8;;
67429;SDS011;54298;52.076;5.264;2024-02-14T02:27:53;9.21;;;5.0;;
67429;SDS011;54298;52.076;5.264;2024-02-14T02:29:30;6.3;;;4.5;;
67429;SDS011;54298;52.076;5.264;2024-02-14T02:32:45;8.71;;;5.11;;
67429;SDS011;54298;52.076;5.264;2024-02-14T02:34:21;8.6;;;5.4;;
67429;SDS011;54298;52.076;5.264;2024-02-14T02:35:57;6.9;;;5.11;;
67429;SDS011;54298;52.076;5.264;2024-02-14T02:39:11;7.8;;;5.0;;
67429;SDS011;54298;52.076;5.264;2024-02-14T02:40:47;8.1;;;4.7;;
67429;SDS011;54298;52.076;5.264;2024-02-14T02:42:23;7.6;;;5.3;;
67429;SDS011;54298;52.076;5.264;2024-02-14T02:43:59;8.5;;;4.8;;
67429;SDS011;54298;52.076;5.264;2024-02-14T02:47:12;7.2;;;4.91;;
67429;SDS011;54298;52.076;5.264;2024-02-14T02:48:48;9.21;;;5.6;;
67429;SDS011;54298;52.076;5.264;2024-02-14T02:50:24;10.4;;;4.8;;
67429;SDS011;54298;52.076;5.264;2024-02-14T02:53:36;6.8;;;4.7;;
67429;SDS011;54298;52.076;5.264;2024-02-14T02:55:12;6.8;;;4.61;;
67429;SDS011;54298;52.076;5.264;2024-02-14T02:56:48;6.0;;;4.61;;
67429;SDS011;54298;52.076;5.264;2024-02-14T03:00:00;7.0;;;5.0;;
67429;SDS011;54298;52.076;5.264;2024-02-14T03:01:37;7.3;;;4.7;;
67429;SDS011;54298;52.076;5.264;2024-02-14T03:03:13;7.3;;;4.7;;
67429;SDS011;54298;52.076;5.264;2024-02-14T03:04:49;6.0;;;4.3;;
67429;SDS011;54298;52.076;5.264;2024-02-14T03:08:01;8.4;;;4.7;;
67429;SDS011;54298;52.076;5.264;2024-02-14T03:09:37;6.4;;;4.41;;
67429;SDS011;54298;52.076;5.264;2024-02-14T03:11:14;6.1;;;4.8;;
67429;SDS011;54298;52.076;5.264;2024-02-14T03:14:28;6.2;;;4.61;;
67429;SDS011;54298;52.076;5.264;2024-02-14T03:16:05;8.6;;;5.0;;
67429;SDS011;54298;52.076;5.264;2024-02-14T03:17:41;5.6;;;4.5;;
67429;SDS011;54298;52.076;5.264;2024-02-14T03:20:53;7.4;;;5.11;;
67429;SDS011;54298;52.076;5.264;2024-02-14T03:22:29;8.2;;;4.91;;
67429;SDS011;54298;52.076;5.264;2024-02-14T03:24:05;6.3;;;5.11;;
67429;SDS011;54298;52.076;5.264;2024-02-14T03:27:18;6.5;;;4.91;;
67429;SDS011;54298;52.076;5.264;2024-02-14T03:28:54;8.2;;;5.7;;
67429;SDS011;54298;52.076;5.264;2024-02-14T03:30:30;9.0;;;4.8;;
67429;SDS011;54298;52.076;5.264;2024-02-14T03:32:06;8.2;;;5.3;;
67429;SDS011;54298;52.076;5.264;2024-02-14T03:35:19;8.81;;;5.6;;
67429;SDS011;54298;52.076;5.264;2024-02-14T03:36:55;14.8;;;6.1;;
67429;SDS011;54298;52.076;5.264;2024-02-14T03:38:31;8.5;;;5.11;;
67429;SDS011;54298;52.076;5.264;2024-02-14T03:41:44;12.6;;;6.0;;
67429;SDS011;54298;52.076;5.264;2024-02-14T03:43:20;8.6;;;5.6;;
67429;SDS011;54298;52.076;5.264;2024-02-14T03:44:56;11.8;;;6.3;;
67429;SDS011;54298;52.076;5.264;2024-02-14T03:48:09;8.2;;;5.6;;
67429;SDS011;54298;52.076;5.264;2024-02-14T03:49:45;12.3;;;5.9;;
67429;SDS011;54298;52.076;5.264;2024-02-14T03:51:22;10.8;;;5.7;;
67429;SDS011;54298;52.076;5.264;2024-02-14T03:52:59;9.1;;;5.11;;
67429;SDS011;54298;52.076;5.264;2024-02-14T03:56:11;14.1;;;5.6;;
67429;SDS011;54298;52.076;5.264;2024-02-14T03:57:47;13.5;;;6.5;;
67429;SDS011;54298;52.076;5.264;2024-02-14T03:59:23;15.2;;;6.1;;
67429;SDS011;54298;52.076;5.264;2024-02-14T04:02:36;12.0;;;6.2;;
67429;SDS011;54298;52.076;5.264;2024-02-14T04:04:12;12.2;;;6.1;;
67429;SDS011;54298;52.076;5.264;2024-02-14T04:05:48;14.9;;;6.8;;
67429;SDS011;54298;52.076;5.264;2024-02-14T04:09:00;15.1;;;6.3;;
67429;SDS011;54298;52.076;5.264;2024-02-14T04:10:36;10.21;;;5.9;;
67429;SDS011;54298;52.076;5.264;2024-02-14T04:12:12;9.6;;;5.5;;
67429;SDS011;54298;52.076;5.264;2024-02-14T04:15:24;14.8;;;6.7;;
67429;SDS011;54298;52.076;5.264;2024-02-14T04:17:01;12.9;;;5.5;;
67429;SDS011;54298;52.076;5.264;2024-02-14T04:18:37;11.5;;;5.8;;
67429;SDS011;54298;52.076;5.264;2024-02-14T04:20:13;11.9;;;5.6;;
67429;SDS011;54298;52.076;5.264;2024-02-14T04:23:25;12.3;;;5.5;;
67429;SDS011;54298;52.076;5.264;2024-02-14T04:25:01;10.9;;;5.6;;
67429;SDS011;54298;52.076;5.264;2024-02-14T04:26:37;19.0;;;5.4;;
67429;SDS011;54298;52.076;5.264;2024-02-14T04:29:49;10.4;;;5.3;;
67429;SDS011;54298;52.076;5.264;2024-02-14T04:31:25;14.3;;;5.7;;
67429;SDS011;54298;52.076;5.264;2024-02-14T04:33:02;10.7;;;5.6;;
67429;SDS011;54298;52.076;5.264;2024-02-14T04:36:14;13.1;;;6.0;;
67429;SDS011;54298;52.076;5.264;2024-02-14T04:37:50;17.7;;;6.2;;
67429;SDS011;54298;52.076;5.264;2024-02-14T04:39:26;10.5;;;5.9;;
67429;SDS011;54298;52.076;5.264;2024-02-14T04:41:02;12.9;;;5.5;;
67429;SDS011;54298;52.076;5.264;2024-02-14T04:44:14;12.4;;;6.4;;
67429;SDS011;54298;52.076;5.264;2024-02-14T04:45:50;14.1;;;6.1;;
67429;SDS011;54298;52.076;5.264;2024-02-14T04:47:27;10.5;;;5.7;;
67429;SDS011;54298;52.076;5.264;2024-02-14T04:50:39;10.21;;;5.3;;
67429;SDS011;54298;52.076;5.264;2024-02-14T04:52:15;9.4;;;5.2;;
67429;SDS011;54298;52.076;5.264;2024-02-14T04:53:51;15.5;;;6.1;;
67429;SDS011;54298;52.076;5.264;2024-02-14T04:57:03;11.9;;;5.6;;
67429;SDS011;54298;52.076;5.264;2024-02-14T04:58:39;15.0;;;6.1;;
67429;SDS011;54298;52.076;5.264;2024-02-14T05:00:15;11.1;;;5.5;;
67429;SDS011;54298;52.076;5.264;2024-02-14T05:03:28;13.6;;;6.2;;
67429;SDS011;54298;52.076;5.264;2024-02-14T05:05:05;13.0;;;6.3;;
67429;SDS011;54298;52.076;5.264;2024-02-14T05:06:41;16.5;;;6.5;;
67429;SDS011;54298;52.076;5.264;2024-02-14T05:08:17;12.6;;;6.8;;
67429;SDS011;54298;52.076;5.264;2024-02-14T05:11:29;10.3;;;6.2;;
67429;SDS011;54298;52.076;5.264;2024-02-14T05:13:05;10.4;;;6.1;;
67429;SDS011;54298;52.076;5.264;2024-02-14T05:14:41;11.8;;;6.1;;
67429;SDS011;54298;52.076;5.264;2024-02-14T05:17:53;13.2;;;6.6;;
67429;SDS011;54298;52.076;5.264;2024-02-14T05:19:29;13.0;;;7.1;;
67429;SDS011;54298;52.076;5.264;2024-02-14T05:21:06;11.7;;;6.7;;
67429;SDS011;54298;52.076;5.264;2024-02-14T05:24:19;7.8;;;6.3;;
67429;SDS011;54298;52.076;5.264;2024-02-14T05:25:55;9.5;;;6.4;;
67429;SDS011;54298;52.076;5.264;2024-02-14T05:27:31;12.0;;;6.5;;
67429;SDS011;54298;52.076;5.264;2024-02-14T05:29:07;12.6;;;7.8;;
67429;SDS011;54298;52.076;5.264;2024-02-14T05:32:19;10.21;;;6.4;;
67429;SDS011;54298;52.076;5.264;2024-02-14T05:33:55;12.5;;;7.4;;
67429;SDS011;54298;52.076;5.264;2024-02-14T05:35:32;9.9;;;6.4;;
67429;SDS011;54298;52.076;5.264;2024-02-14T05:38:44;11.7;;;6.5;;
67429;SDS011;54298;52.076;5.264;2024-02-14T05:40:20;10.1;;;6.5;;
67429;SDS011;54298;52.076;5.264;2024-02-14T05:41:56;10.0;;;6.2;;
67429;SDS011;54298;52.076;5.264;2024-02-14T05:45:08;11.8;;;6.2;;
67429;SDS011;54298;52.076;5.264;2024-02-14T05:46:45;9.4;;;6.1;;
67429;SDS011;54298;52.076;5.264;2024-02-14T05:48:21;9.71;;;5.7;;
67429;SDS011;54298;52.076;5.264;2024-02-14T05:51:34;9.31;;;5.7;;
67429;SDS011;54298;52.076;5.264;2024-02-14T05:53:10;10.6;;;5.5;;
67429;SDS011;54298;52.076;5.264;2024-02-14T05:54:46;12.0;;;5.6;;
67429;SDS011;54298;52.076;5.264;2024-02-14T05:56:22;9.1;;;5.2;;
67429;SDS011;54298;52.076;5.264;2024-02-14T05:59:34;8.71;;;5.5;;
67429;SDS011;54298;52.076;5.264;2024-02-14T06:01:10;11.6;;;5.2;;
67429;SDS011;54298;52.076;5.264;2024-02-14T06:02:46;6.6;;;4.8;;
67429;SDS011;54298;52.076;5.264;2024-02-14T06:05:59;6.5;;;5.0;;
67429;SDS011;54298;52.076;5.264;2024-02-14T06:07:35;7.3;;;5.11;;
67429;SDS011;54298;52.076;5.264;2024-02-14T06:09:11;6.9;;;4.3;;
67429;SDS011;54298;52.076;5.264;2024-02-14T06:12:23;12.3;;;5.0;;
67429;SDS011;54298;52.076;5.264;2024-02-14T06:13:59;13.5;;;8.71;;
67429;SDS011;54298;52.076;5.264;2024-02-14T06:15:35;12.0;;;7.8;;
67429;SDS011;54298;52.076;5.264;2024-02-14T06:18:47;9.5;;;4.7;;
67429;SDS011;54298;52.076;5.264;2024-02-14T06:20:23;8.0;;;5.2;;
67429;SDS011;54298;52.076;5.264;2024-02-14T06:21:59;8.0;;;5.3;;
67429;SDS011;54298;52.076;5.264;2024-02-14T06:23:35;6.0;;;4.61;;
67429;SDS011;54298;52.076;5.264;2024-02-14T06:26:47;7.3;;;5.2;;
67429;SDS011;54298;52.076;5.264;2024-02-14T06:28:23;6.2;;;4.91;;
67429;SDS011;54298;52.076;5.264;2024-02-14T06:29:59;8.71;;;4.8;;
67429;SDS011;54298;52.076;5.264;2024-02-14T06:33:11;8.1;;;5.2;;
67429;SDS011;54298;52.076;5.264;2024-02-14T06:34:47;9.6;;;5.7;;
67429;SDS011;54298;52.076;5.264;2024-02-14T06:36:24;11.4;;;7.1;;
67429;SDS011;54298;52.076;5.264;2024-02-14T06:39:36;8.6;;;6.4;;
67429;SDS011;54298;52.076;5.264;2024-02-14T06:41:12;8.9;;;6.2;;
67429;SDS011;54298;52.076;5.264;2024-02-14T06:42:48;9.1;;;5.4;;
67429;SDS011;54298;52.076;5.264;2024-02-14T06:46:00;13.3;;;8.4;;
67429;SDS011;54298;52.076;5.264;2024-02-14T06:47:36;10.9;;;8.71;;
67429;SDS011;54298;52.076;5.264;2024-02-14T06:49:12;17.5;;;9.6;;
67429;SDS011;54298;52.076;5.264;2024-02-14T06:50:48;14.2;;;6.4;;
67429;SDS011;54298;52.076;5.264;2024-02-14T06:54:02;9.1;;;6.1;;
67429;SDS011;54298;52.076;5.264;2024-02-14T06:55:38;15.9;;;7.5;;
67429;SDS011;54298;52.076;5.264;2024-02-14T06:57:14;15.9;;;7.5;;
67429;SDS011;54298;52.076;5.264;2024-02-14T07:00:26;13.3;;;8.0;;
67429;SDS011;54298;52.076;5.264;2024-02-14T07:02:03;13.7;;;8.0;;
67429;SDS011;54298;52.076;5.264;2024-02-14T07:03:40;14.0;;;7.4;;
67429;SDS011;54298;52.076;5.264;2024-02-14T07:06:52;11.0;;;7.5;;
67429;SDS011;54298;52.076;5.264;2024-02-14T07:08:28;12.4;;;8.0;;
67429;SDS011;54298;52.076;5.264;2024-02-14T07:10:05;14.9;;;8.9;;
67429;SDS011;54298;52.076;5.264;2024-02-14T07:11:42;15.2;;;8.2;;
67429;SDS011;54298;52.076;5.264;2024-02-14T07:14:54;13.5;;;8.81;;
67429;SDS011;54298;52.076;5.264;2024-02-14T07:16:30;11.7;;;7.7;;
67429;SDS011;54298;52.076;5.264;2024-02-14T07:18:06;10.8;;;7.7;;
67429;SDS011;54298;52.076;5.264;2024-02-14T07:21:18;10.8;;;7.7;;
67429;SDS011;54298;52.076;5.264;2024-02-14T07:22:54;13.5;;;8.5;;
67429;SDS011;54298;52.076;5.264;2024-02-14T07:24:30;14.8;;;8.31;;
67429;SDS011;54298;52.076;5.264;2024-02-14T07:27:43;17.7;;;8.71;;
67429;SDS011;54298;52.076;5.264;2024-02-14T07:29:19;16.3;;;9.81;;
67429;SDS011;54298;52.076;5.264;2024-02-14T07:30:55;16.9;;;10.6;;
67429;SDS011;54298;52.076;5.264;2024-02-14T07:34:07;20.6;;;12.0;;
67429;SDS011;54298;52.076;5.264;2024-02-14T07:35:43;11.7;;;7.8;;
67429;SDS011;54298;52.076;5.264;2024-02-14T07:37:19;22.0;;;9.71;;
67429;SDS011;54298;52.076;5.264;2024-02-14T07:38:55;11.3;;;8.0;;
67429;SDS011;54298;52.076;5.264;2024-02-14T07:42:11;12.3;;;7.9;;
67429;SDS011;54298;52.076;5.264;2024-02-14T07:43:47;16.5;;;8.6;;
67429;SDS011;54298;52.076;5.264;2024-02-14T07:45:23;14.8;;;8.2;;
67429;SDS011;54298;52.076;5.264;2024-02-14T07:48:35;14.4;;;8.2;;
67429;SDS011;54298;52.076;5.264;2024-02-14T07:50:11;12.0;;;7.8;;
67429;SDS011;54298;52.076;5.264;2024-02-14T07:51:47;10.5;;;6.8;;
67429;SDS011;54298;52.076;5.264;2024-02-14T07:54:59;11.3;;;8.6;;
67429;SDS011;54298;52.076;5.264;2024-02-14T07:56:35;10.7;;;7.5;;
67429;SDS011;54298;52.076;5.264;2024-02-14T07:58:12;20.8;;;12.6;;
67429;SDS011;54298;52.076;5.264;2024-02-14T07:59:48;12.7;;;8.4;;
67429;SDS011;54298;52.076;5.264;2024-02-14T08:03:01;14.4;;;9.31;;
67429;SDS011;54298;52.076;5.264;2024-02-14T08:04:37;12.5;;;7.5;;
67429;SDS011;54298;52.076;5.264;2024-02-14T08:06:13;13.6;;;7.5;;
67429;SDS011;54298;52.076;5.264;2024-02-14T08:09:25;12.1;;;7.9;;
67429;SDS011;54298;52.076;5.264;2024-02-14T08:11:01;10.5;;;6.4;;
67429;SDS011;54298;52.076;5.264;2024-02-14T08:12:37;9.71;;;6.9;;
67429;SDS011;54298;52.076;5.264;2024-02-14T08:15:53;12.9;;;7.4;;
67429;SDS011;54298;52.076;5.264;2024-02-14T08:17:29;11.5;;;7.3;;
67429;SDS011;54298;52.076;5.264;2024-02-14T08:19:05;9.5;;;6.6;;
67429;SDS011;54298;52.076;5.264;2024-02-14T08:20:41;9.81;;;6.4;;
67429;SDS011;54298;52.076;5.264;2024-02-14T08:23:53;12.5;;;7.5;;
67429;SDS011;54298;52.076;5.264;2024-02-14T08:25:30;10.4;;;7.1;;
67429;SDS011;54298;52.076;5.264;2024-02-14T08:27:06;11.0;;;7.1;;
67429;SDS011;54298;52.076;5.264;2024-02-14T08:30:18;10.5;;;5.9;;
67429;SDS011;54298;52.076;5.264;2024-02-14T08:31:55;10.6;;;6.3;;
67429;SDS011;54298;52.076;5.264;2024-02-14T08:33:30;9.4;;;6.5;;
67429;SDS011;54298;52.076;5.264;2024-02-14T08:36:44;9.71;;;6.8;;
67429;SDS011;54298;52.076;5.264;2024-02-14T08:38:20;11.0;;;6.9;;
67429;SDS011;54298;52.076;5.264;2024-02-14T08:39:56;11.7;;;7.0;;
67429;SDS011;54298;52.076;5.264;2024-02-14T08:43:08;11.4;;;8.2;;
67429;SDS011;54298;52.076;5.264;2024-02-14T08:44:44;10.7;;;7.8;;
67429;SDS011;54298;52.076;5.264;2024-02-14T08:46:20;10.7;;;6.7;;
67429;SDS011;54298;52.076;5.264;2024-02-14T08:47:56;13.4;;;8.31;;
67429;SDS011;54298;52.076;5.264;2024-02-14T08:51:12;12.0;;;6.7;;
67429;SDS011;54298;52.076;5.264;2024-02-14T08:52:48;17.8;;;9.21;;
67429;SDS011;54298;52.076;5.264;2024-02-14T08:54:24;10.8;;;7.4;;
67429;SDS011;54298;52.076;5.264;2024-02-14T08:57:36;11.0;;;7.3;;
67429;SDS011;54298;52.076;5.264;2024-02-14T08:59:12;10.4;;;6.2;;
67429;SDS011;54298;52.076;5.264;2024-02-14T09:00:48;11.5;;;6.8;;
67429;SDS011;54298;52.076;5.264;2024-02-14T09:04:00;10.5;;;6.3;;
67429;SDS011;54298;52.076;5.264;2024-02-14T09:05:37;7.9;;;5.7;;
67429;SDS011;54298;52.076;5.264;2024-02-14T09:07:13;9.0;;;6.0;;
67429;SDS011;54298;52.076;5.264;2024-02-14T09:08:49;9.1;;;6.0;;
67429;SDS011;54298;52.076;5.264;2024-02-14T09:12:01;10.9;;;6.5;;
67429;SDS011;54298;52.076;5.264;2024-02-14T09:13:37;9.4;;;5.9;;
67429;SDS011;54298;52.076;5.264;2024-02-14T09:15:13;9.9;;;6.4;;
67429;SDS011;54298;52.076;5.264;2024-02-14T09:18:25;9.1;;;6.6;;
67429;SDS011;54298;52.076;5.264;2024-02-14T09:20:01;9.71;;;7.0;;
67429;SDS011;54298;52.076;5.264;2024-02-14T09:21:37;10.3;;;6.7;;
67429;SDS011;54298;52.076;5.264;2024-02-14T09:24:50;10.21;;;7.4;;
67429;SDS011;54298;52.076;5.264;2024-02-14T09:26:26;10.7;;;5.9;;
67429;SDS011;54298;52.076;5.264;2024-02-14T09:28:02;12.5;;;8.1;;
67429;SDS011;54298;52.076;5.264;2024-02-14T09:31:17;9.5;;;7.2;;
67429;SDS011;54298;52.076;5.264;2024-02-14T09:32:54;11.2;;;6.8;;
67429;SDS011;54298;52.076;5.264;2024-02-14T09:34:33;11.3;;;6.8;;
67429;SDS011;54298;52.076;5.264;2024-02-14T09:36:09;10.8;;;7.1;;
67429;SDS011;54298;52.076;5.264;2024-02-14T09:39:22;12.7;;;7.8;;
67429;SDS011;54298;52.076;5.264;2024-02-14T09:40:58;14.5;;;9.9;;
67429;SDS011;54298;52.076;5.264;2024-02-14T09:42:43;16.0;;;8.4;;
67429;SDS011;54298;52.076;5.264;2024-02-14T09:44:24;11.9;;;6.5;;
67429;SDS011;54298;52.076;5.264;2024-02-14T09:47:40;15.1;;;8.6;;
67429;SDS011;54298;52.076;5.264;2024-02-14T09:49:17;9.4;;;7.4;;
67429;SDS011;54298;52.076;5.264;2024-02-14T09:50:55;12.7;;;8.6;;
67429;SDS011;54298;52.076;5.264;2024-02-14T09:54:10;10.5;;;7.4;;
67429;SDS011;54298;52.076;5.264;2024-02-14T09:55:46;14.4;;;8.1;;
67429;SDS011;54298;52.076;5.264;2024-02-14T09:57:24;8.6;;;6.8;;
67429;SDS011;54298;52.076;5.264;2024-02-14T09:59:01;12.5;;;6.5;;
67429;SDS011;54298;52.076;5.264;2024-02-14T10:02:14;9.1;;;6.8;;
67429;SDS011;54298;52.076;5.264;2024-02-14T10:03:51;13.3;;;8.1;;
67429;SDS011;54298;52.076;5.264;2024-02-14T10:05:28;10.7;;;6.4;;
67429;SDS011;54298;52.076;5.264;2024-02-14T10:08:40;9.81;;;6.5;;
67429;SDS011;54298;52.076;5.264;2024-02-14T10:10:16;14.9;;;7.2;;
67429;SDS011;54298;52.076;5.264;2024-02-14T10:11:52;9.5;;;6.9;;
67429;SDS011;54298;52.076;5.264;2024-02-14T10:15:05;10.9;;;7.5;;
67429;SDS011;54298;52.076;5.264;2024-02-14T10:16:42;14.2;;;8.31;;
67429;SDS011;54298;52.076;5.264;2024-02-14T10:18:18;14.7;;;7.1;;
67429;SDS011;54298;52.076;5.264;2024-02-14T10:19:55;12.0;;;6.7;;
67429;SDS011;54298;52.076;5.264;2024-02-14T10:23:07;12.0;;;8.2;;
67429;SDS011;54298;52.076;5.264;2024-02-14T10:24:43;11.5;;;6.7;;
67429;SDS011;54298;52.076;5.264;2024-02-14T10:26:21;21.0;;;12.2;;
67429;SDS011;54298;52.076;5.264;2024-02-14T10:29:39;9.5;;;5.8;;
67429;SDS011;54298;52.076;5.264;2024-02-14T10:31:20;9.31;;;6.5;;
67429;SDS011;54298;52.076;5.264;2024-02-14T10:32:57;10.1;;;5.8;;
67429;SDS011;54298;52.076;5.264;2024-02-14T10:34:34;12.5;;;5.7;;
67429;SDS011;54298;52.076;5.264;2024-02-14T10:37:50;14.3;;;6.8;;
67429;SDS011;54298;52.076;5.264;2024-02-14T10:39:26;8.9;;;5.7;;
67429;SDS011;54298;52.076;5.264;2024-02-14T10:41:05;11.6;;;5.8;;
67429;SDS011;54298;52.076;5.264;2024-02-14T10:44:17;8.2;;;5.4;;
67429;SDS011;54298;52.076;5.264;2024-02-14T10:45:54;8.71;;;5.2;;
67429;SDS011;54298;52.076;5.264;2024-02-14T10:47:34;8.71;;;4.7;;
67429;SDS011;54298;52.076;5.264;2024-02-14T10:49:11;8.6;;;5.3;;
67429;SDS011;54298;52.076;5.264;2024-02-14T10:52:26;11.1;;;5.2;;
67429;SDS011;54298;52.076;5.264;2024-02-14T10:54:08;8.0;;;4.7;;
67429;SDS011;54298;52.076;5.264;2024-02-14T10:55:47;6.3;;;4.8;;
67429;SDS011;54298;52.076;5.264;2024-02-14T10:59:01;9.21;;;4.7;;
67429;SDS011;54298;52.076;5.264;2024-02-14T11:00:39;7.7;;;4.7;;
67429;SDS011;54298;52.076;5.264;2024-02-14T11:02:16;12.4;;;6.4;;
67429;SDS011;54298;52.076;5.264;2024-02-14T11:03:55;8.9;;;4.61;;
67429;SDS011;54298;52.076;5.264;2024-02-14T11:07:09;6.8;;;4.91;;
67429;SDS011;54298;52.076;5.264;2024-02-14T11:08:57;6.8;;;4.2;;
67429;SDS011;54298;52.076;5.264;2024-02-14T11:10:37;9.5;;;5.5;;
67429;SDS011;54298;52.076;5.264;2024-02-14T11:12:13;9.21;;;4.7;;
67429;SDS011;54298;52.076;5.264;2024-02-14T11:15:28;9.21;;;4.41;;
67429;SDS011;54298;52.076;5.264;2024-02-14T11:17:04;8.5;;;4.8;;
67429;SDS011;54298;52.076;5.264;2024-02-14T11:18:44;10.0;;;5.3;;
67429;SDS011;54298;52.076;5.264;2024-02-14T11:22:10;7.2;;;4.7;;
67429;SDS011;54298;52.076;5.264;2024-02-14T11:23:52;7.7;;;4.91;;
67429;SDS011;54298;52.076;5.264;2024-02-14T11:25:29;7.6;;;5.6;;
67429;SDS011;54298;52.076;5.264;2024-02-14T11:27:09;6.2;;;4.7;;
67429;SDS011;54298;52.076;5.264;2024-02-14T11:30:28;9.71;;;6.1;;
67429;SDS011;54298;52.076;5.264;2024-02-14T11:32:06;8.71;;;4.61;;
67429;SDS011;54298;52.076;5.264;2024-02-14T11:33:43;11.1;;;5.8;;
67429;SDS011;54298;52.076;5.264;2024-02-14T11:35:19;7.9;;;5.11;;
67429;SDS011;54298;52.076;5.264;2024-02-14T11:38:35;11.0;;;5.8;;
67429;SDS011;54298;52.076;5.264;2024-02-14T11:40:11;7.2;;;4.3;;
67429;SDS011;54298;52.076;5.264;2024-02-14T11:41:47;7.5;;;5.7;;
67429;SDS011;54298;52.076;5.264;2024-02-14T11:45:00;8.4;;;4.7;;
67429;SDS011;54298;52.076;5.264;2024-02-14T11:46:36;7.4;;;4.61;;
67429;SDS011;54298;52.076;5.264;2024-02-14T11:48:13;7.6;;;4.8;;
67429;SDS011;54298;52.076;5.264;2024-02-14T11:51:26;7.3;;;4.61;;
67429;SDS011;54298;52.076;5.264;2024-02-14T11:53:03;9.71;;;6.0;;
67429;SDS011;54298;52.076;5.264;2024-02-14T11:54:39;7.7;;;4.7;;
67429;SDS011;54298;52.076;5.264;2024-02-14T11:56:15;6.9;;;5.0;;
67429;SDS011;54298;52.076;5.264;2024-02-14T11:59:28;9.6;;;4.91;;
67429;SDS011;54298;52.076;5.264;2024-02-14T12:01:04;9.81;;;4.8;;
67429;SDS011;54298;52.076;5.264;2024-02-14T12:02:41;8.31;;;5.6;;
67429;SDS011;54298;52.076;5.264;2024-02-14T12:05:54;7.7;;;5.2;;
67429;SDS011;54298;52.076;5.264;2024-02-14T12:07:31;10.1;;;7.1;;
67429;SDS011;54298;52.076;5.264;2024-02-14T12:09:08;7.2;;;5.4;;
67429;SDS011;54298;52.076;5.264;2024-02-14T12:12:22;9.9;;;6.2;;
67429;SDS011;54298;52.076;5.264;2024-02-14T12:14:00;7.0;;;5.3;;
67429;SDS011;54298;52.076;5.264;2024-02-14T12:15:38;11.3;;;5.7;;
67429;SDS011;54298;52.076;5.264;2024-02-14T12:17:15;5.6;;;4.41;;
67429;SDS011;54298;52.076;5.264;2024-02-14T12:20:40;9.6;;;5.8;;
67429;SDS011;54298;52.076;5.264;2024-02-14T12:22:17;6.8;;;4.8;;
67429;SDS011;54298;52.076;5.264;2024-02-14T12:23:57;7.2;;;4.8;;
67429;SDS011;54298;52.076;5.264;2024-02-14T12:25:34;6.2;;;4.61;;
67429;SDS011;54298;52.076;5.264;2024-02-14T12:28:46;6.6;;;4.8;;
67429;SDS011;54298;52.076;5.264;2024-02-14T12:30:22;5.3;;;4.2;;
67429;SDS011;54298;52.076;5.264;2024-02-14T12:32:03;5.9;;;4.61;;
67429;SDS011;54298;52.076;5.264;2024-02-14T12:35:16;6.0;;;4.5;;
67429;SDS011;54298;52.076;5.264;2024-02-14T12:36:52;8.0;;;4.7;;
67429;SDS011;54298;52.076;5.264;2024-02-14T12:38:28;6.9;;;5.11;;
67429;SDS011;54298;52.076;5.264;2024-02-14T12:40:05;5.6;;;4.41;;
67429;SDS011;54298;52.076;5.264;2024-02-14T12:43:19;5.9;;;4.41;;
67429;SDS011;54298;52.076;5.264;2024-02-14T12:44:56;5.4;;;3.7;;
67429;SDS011;54298;52.076;5.264;2024-02-14T12:46:32;6.7;;;4.5;;
67429;SDS011;54298;52.076;5.264;2024-02-14T12:49:46;6.0;;;4.0;;